createdAt,value
2019-01-23T00:01:51.955Z,55.93
2019-01-23T00:04:41.667Z,63.60
2019-01-23T00:07:31.762Z,52.70
2019-01-23T00:10:21.160Z,50.93
2019-01-23T00:13:11.252Z,56.53
2019-01-23T00:16:01.402Z,58.90
2019-01-23T00:18:51.395Z,51.63
2019-01-23T00:21:41.456Z,54.67
2019-01-23T00:24:31.019Z,64.03
2019-01-23T00:27:20.712Z,70.60
2019-01-23T00:30:10.802Z,68.93
2019-01-23T00:33:00.779Z,64.10
2019-01-23T00:35:50.573Z,54.37
2019-01-23T00:38:40.232Z,64.50
2019-01-23T00:41:30.511Z,54.13
2019-01-23T00:44:21.611Z,66.57
2019-01-23T00:47:11.800Z,65.57
2019-01-23T00:50:01.270Z,62.80
2019-01-23T00:52:50.920Z,57.43
2019-01-23T00:55:40.978Z,61.20
2019-01-23T00:58:30.768Z,56.20
2019-01-23T01:01:20.557Z,55.27
2019-01-23T01:04:10.514Z,59.13
2019-01-23T01:07:00.894Z,49.85
2019-01-23T01:09:50.836Z,59.80
2019-01-23T01:12:41.013Z,66.80
2019-01-23T01:15:31.141Z,63.15
2019-01-23T01:18:21.130Z,62.57
2019-01-23T01:21:11.232Z,63.13
2019-01-23T01:24:01.972Z,61.80
2019-01-23T01:26:51.987Z,68.77
2019-01-23T01:29:42.017Z,54.80
2019-01-23T01:32:32.126Z,65.70
2019-01-23T01:35:22.469Z,57.57
2019-01-23T01:38:12.630Z,67.20
2019-01-23T01:41:02.179Z,63.20
2019-01-23T01:43:51.834Z,61.20
2019-01-23T01:46:41.689Z,60.30
2019-01-23T01:49:31.638Z,65.50
2019-01-23T01:52:21.643Z,57.53
2019-01-23T01:55:12.322Z,68.13
2019-01-23T01:58:03.418Z,67.07
2019-01-23T02:00:53.572Z,56.50
2019-01-23T02:03:43.402Z,64.90
2019-01-23T02:06:32.842Z,59.43
2019-01-23T02:09:22.756Z,61.95
2019-01-23T02:12:12.703Z,58.17
2019-01-23T02:15:02.434Z,74.12
2019-01-23T02:17:52.611Z,54.98
2019-01-23T02:20:42.599Z,59.35
2019-01-23T02:23:32.769Z,71.90
2019-01-23T02:26:22.218Z,66.23
2019-01-23T02:29:12.292Z,55.80
2019-01-23T02:32:02.660Z,71.82
2019-01-23T02:34:52.733Z,52.20
2019-01-23T02:37:42.186Z,62.93
2019-01-23T02:40:41.266Z,57.67
2019-01-23T02:43:31.253Z,65.07
2019-01-23T02:46:21.043Z,53.28
2019-01-23T02:49:10.829Z,63.23
2019-01-23T02:52:00.886Z,67.90
2019-01-23T02:54:51.051Z,55.88
2019-01-23T02:57:40.904Z,54.42
2019-01-23T03:00:30.605Z,65.17
2019-01-23T03:03:20.425Z,65.50
2019-01-23T03:06:11.865Z,55.45
2019-01-23T03:09:01.659Z,56.20
2019-01-23T03:11:53.437Z,71.97
2019-01-23T03:14:44.115Z,65.67
2019-01-23T03:17:33.861Z,60.55
2019-01-23T03:20:24.167Z,66.12
2019-01-23T03:23:14.583Z,62.43
2019-01-23T03:26:05.212Z,67.10
2019-01-23T03:28:55.234Z,54.13
2019-01-23T03:31:45.470Z,61.40
2019-01-23T03:34:36.675Z,61.23
2019-01-23T03:37:26.451Z,61.03
2019-01-23T03:40:19.354Z,68.27
2019-01-23T03:43:09.169Z,73.42
2019-01-23T03:45:59.315Z,58.85
2019-01-23T03:48:49.042Z,70.92
2019-01-23T03:51:39.197Z,70.00
2019-01-23T03:54:29.094Z,64.03
2019-01-23T03:57:19.713Z,69.03
2019-01-23T04:00:18.451Z,73.17
2019-01-23T04:03:08.447Z,65.87
2019-01-23T04:05:57.962Z,71.70
2019-01-23T04:08:47.944Z,62.05
2019-01-23T04:11:37.960Z,61.02
2019-01-23T04:14:28.203Z,61.90
2019-01-23T04:17:17.908Z,73.33
2019-01-23T04:20:12.636Z,65.92
2019-01-23T04:23:04.067Z,69.05
2019-01-23T04:25:53.902Z,79.22
2019-01-23T04:28:43.698Z,69.90
2019-01-23T04:31:33.899Z,76.15
2019-01-23T04:34:23.703Z,71.25
2019-01-23T04:37:13.789Z,54.73
2019-01-23T04:40:03.814Z,62.73
2019-01-23T04:42:53.979Z,69.23
2019-01-23T04:45:43.865Z,70.42
2019-01-23T04:48:33.906Z,62.13
2019-01-23T04:51:38.878Z,66.12
2019-01-23T04:54:28.876Z,68.70
2019-01-23T04:57:18.401Z,68.92
2019-01-23T05:00:10.317Z,67.08
2019-01-23T05:03:00.111Z,70.28
2019-01-23T05:05:50.145Z,68.05
2019-01-23T05:08:40.344Z,66.53
2019-01-23T05:11:30.624Z,88.27
2019-01-23T05:14:20.344Z,75.73
2019-01-23T05:17:10.115Z,59.25
2019-01-23T05:20:00.130Z,73.72
2019-01-23T05:22:49.716Z,78.00
2019-01-23T05:25:39.778Z,68.25
2019-01-23T05:28:29.861Z,71.43
2019-01-23T05:31:20.003Z,81.20
2019-01-23T05:34:10.517Z,73.10
2019-01-23T05:37:00.567Z,78.37
2019-01-23T05:39:50.861Z,74.92
2019-01-23T05:42:40.645Z,76.50
2019-01-23T05:45:30.173Z,78.10
2019-01-23T05:48:20.182Z,74.47
2019-01-23T05:51:10.277Z,80.80
2019-01-23T05:54:00.108Z,73.77
2019-01-23T05:56:50.292Z,82.47
2019-01-23T05:59:40.437Z,70.60
2019-01-23T06:02:30.216Z,72.87
2019-01-23T06:05:19.711Z,72.92
2019-01-23T06:08:09.455Z,75.90
2019-01-23T06:10:59.063Z,78.72
2019-01-23T06:13:48.758Z,78.87
2019-01-23T06:16:57.785Z,69.53
2019-01-23T06:19:47.431Z,58.23
2019-01-23T06:22:37.870Z,89.87
2019-01-23T06:25:27.163Z,75.43
2019-01-23T06:28:16.859Z,75.85
2019-01-23T06:31:07.079Z,72.10
2019-01-23T06:33:56.776Z,76.20
2019-01-23T06:36:46.498Z,67.55
2019-01-23T06:39:36.091Z,73.30
2019-01-23T06:42:25.730Z,65.70
2019-01-23T06:45:35.029Z,65.42
2019-01-23T06:48:24.730Z,81.47
2019-01-23T06:51:14.736Z,82.70
2019-01-23T06:54:04.547Z,74.03
2019-01-23T06:56:54.734Z,69.90
2019-01-23T06:59:44.435Z,73.30
2019-01-23T07:02:34.601Z,72.17
2019-01-23T07:05:24.867Z,83.72
2019-01-23T07:08:14.499Z,72.90
2019-01-23T07:11:04.324Z,88.72
2019-01-23T07:13:55.000Z,74.62
2019-01-23T07:16:45.099Z,79.23
2019-01-23T07:19:34.679Z,89.70
2019-01-23T07:22:24.390Z,80.65
2019-01-23T07:25:14.640Z,80.60
2019-01-23T07:28:06.211Z,80.75
2019-01-23T07:30:56.125Z,93.35
2019-01-23T07:33:46.269Z,90.05
2019-01-23T07:36:36.295Z,91.63
2019-01-23T07:39:26.539Z,100.53
2019-01-23T07:42:16.493Z,95.77
2019-01-23T07:45:06.876Z,97.33
2019-01-23T07:47:56.692Z,102.27
2019-01-23T07:50:46.735Z,112.15
2019-01-23T07:53:36.275Z,121.63
2019-01-23T07:56:25.913Z,123.50
2019-01-23T07:59:15.666Z,155.27
2019-01-23T08:02:06.012Z,119.97
2019-01-23T08:04:55.812Z,110.73
2019-01-23T08:07:45.936Z,131.93
2019-01-23T08:10:35.594Z,140.73
2019-01-23T08:13:25.443Z,129.13
2019-01-23T08:16:15.510Z,151.90
2019-01-23T08:19:05.492Z,147.13
2019-01-23T08:21:55.326Z,138.33
2019-01-23T08:24:45.300Z,133.30
2019-01-23T08:27:35.319Z,132.83
2019-01-23T08:30:25.457Z,124.97
2019-01-23T08:33:15.350Z,155.77
2019-01-23T08:36:05.335Z,130.70
2019-01-23T08:38:55.140Z,132.57
2019-01-23T08:41:45.012Z,133.37
2019-01-23T08:44:34.977Z,146.43
2019-01-23T08:47:24.733Z,129.13
2019-01-23T08:50:34.047Z,149.57
2019-01-23T08:53:24.100Z,133.13
2019-01-23T08:56:14.127Z,134.50
2019-01-23T08:59:04.551Z,143.53
2019-01-23T09:01:54.528Z,126.07
2019-01-23T09:04:44.259Z,159.23
2019-01-23T09:07:34.420Z,129.83
2019-01-23T09:10:24.499Z,134.07
2019-01-23T09:13:14.190Z,115.73
2019-01-23T09:16:04.045Z,105.97
2019-01-23T09:18:54.394Z,129.50
2019-01-23T09:21:44.452Z,129.97
2019-01-23T09:24:34.147Z,147.90
2019-01-23T09:27:23.908Z,132.97
2019-01-23T09:30:45.259Z,124.23
2019-01-23T09:34:20.596Z,109.77
2019-01-23T09:37:58.518Z,121.23
2019-01-23T09:41:21.399Z,119.03
2019-01-23T09:44:35.115Z,120.13
2019-01-23T09:47:36.172Z,112.77
2019-01-23T09:50:46.316Z,118.20
2019-01-23T09:54:10.800Z,122.00
2019-01-23T09:57:01.772Z,103.30
2019-01-23T09:59:51.264Z,119.77
2019-01-23T10:02:41.405Z,101.23
2019-01-23T10:05:30.962Z,114.67
2019-01-23T10:08:21.221Z,116.33
2019-01-23T10:11:11.465Z,136.43
2019-01-23T10:14:00.883Z,112.60
2019-01-23T10:16:50.718Z,125.33
2019-01-23T10:19:40.582Z,116.97
2019-01-23T10:22:42.133Z,113.30
2019-01-23T10:25:31.951Z,107.50
2019-01-23T10:28:21.919Z,116.17
2019-01-23T10:31:12.110Z,104.33
2019-01-23T10:34:01.945Z,103.83
2019-01-23T10:36:52.122Z,122.77
2019-01-23T10:39:42.143Z,121.70
2019-01-23T10:42:31.710Z,105.87
2019-01-23T10:45:22.223Z,102.13
2019-01-23T10:48:11.958Z,103.63
2019-01-23T10:51:01.838Z,110.40
2019-01-23T10:53:52.108Z,104.57
2019-01-23T10:56:42.004Z,98.90
2019-01-23T10:59:32.069Z,112.03
2019-01-23T11:02:21.830Z,98.80
2019-01-23T11:05:17.362Z,110.50
2019-01-23T11:08:08.662Z,101.10
2019-01-23T11:10:58.659Z,97.57
2019-01-23T11:13:48.765Z,89.60
2019-01-23T11:16:38.690Z,100.70
2019-01-23T11:19:29.038Z,90.23
2019-01-23T11:22:19.397Z,99.83
2019-01-23T11:25:10.740Z,102.47
2019-01-23T11:28:00.298Z,112.53
2019-01-23T11:30:50.334Z,96.10
2019-01-23T11:33:39.877Z,97.50
2019-01-23T11:36:29.577Z,87.73
2019-01-23T11:39:19.978Z,102.57
2019-01-23T11:42:10.271Z,91.57
2019-01-23T11:44:59.916Z,100.10
2019-01-23T11:47:50.518Z,113.60
2019-01-23T11:50:40.391Z,107.13
2019-01-23T11:53:30.244Z,91.77
2019-01-23T11:56:20.328Z,90.87
2019-01-23T11:59:10.607Z,98.33
2019-01-23T12:02:00.717Z,101.70
2019-01-23T12:04:50.563Z,114.33
2019-01-23T12:07:40.517Z,98.00
2019-01-23T12:10:30.720Z,93.83
2019-01-23T12:13:20.247Z,96.77
2019-01-23T12:16:12.847Z,109.43
2019-01-23T12:19:03.116Z,95.90
2019-01-23T12:21:52.619Z,97.73
2019-01-23T12:24:42.674Z,95.03
2019-01-23T12:27:33.019Z,98.70
2019-01-23T12:30:26.738Z,104.67
2019-01-23T12:33:16.626Z,109.30
2019-01-23T12:36:06.225Z,105.03
2019-01-23T12:38:55.725Z,110.00
2019-01-23T12:41:45.594Z,108.07
2019-01-23T12:44:35.924Z,93.03
2019-01-23T12:47:26.915Z,98.60
2019-01-23T12:50:23.290Z,100.30
2019-01-23T12:53:14.559Z,94.50
2019-01-23T12:56:04.446Z,107.70
2019-01-23T12:58:54.295Z,115.93
2019-01-23T13:01:44.656Z,103.67
2019-01-23T13:04:34.921Z,112.23
2019-01-23T13:07:25.845Z,106.83
2019-01-23T13:10:18.805Z,119.93
2019-01-23T13:13:08.864Z,112.27
2019-01-23T13:15:58.931Z,119.80
2019-01-23T13:18:50.300Z,125.80
2019-01-23T13:21:40.437Z,127.07
2019-01-23T13:24:30.534Z,128.43
2019-01-23T13:27:20.020Z,129.57
2019-01-23T13:30:13.247Z,135.93
2019-01-23T13:33:03.179Z,123.93
2019-01-23T13:35:53.386Z,154.97
2019-01-23T13:38:43.114Z,127.77
2019-01-23T13:41:33.087Z,118.50
2019-01-23T13:44:23.316Z,139.27
2019-01-23T13:47:13.043Z,129.57
2019-01-23T13:50:04.536Z,115.50
2019-01-23T13:52:54.721Z,147.40
2019-01-23T13:55:44.358Z,151.23
2019-01-23T13:58:34.417Z,178.00
2019-01-23T14:01:24.854Z,155.13
2019-01-23T14:04:14.581Z,173.47
2019-01-23T14:07:04.710Z,158.97
2019-01-23T14:09:55.302Z,169.43
2019-01-23T14:12:45.476Z,180.37
2019-01-23T14:15:37.574Z,196.87
2019-01-23T14:18:27.837Z,195.10
2019-01-23T14:21:17.680Z,192.50
2019-01-23T14:24:07.630Z,190.40
2019-01-23T14:26:57.619Z,208.63
2019-01-23T14:29:47.432Z,207.57
2019-01-23T14:32:37.268Z,197.57
2019-01-23T14:35:27.583Z,170.10
2019-01-23T14:38:17.753Z,192.80
2019-01-23T14:41:07.464Z,198.87
2019-01-23T14:43:57.113Z,208.63
2019-01-23T14:46:46.905Z,203.90
2019-01-23T14:49:37.454Z,229.27
2019-01-23T14:52:27.417Z,196.93
2019-01-23T14:55:17.376Z,170.97
2019-01-23T14:58:07.545Z,223.47
2019-01-23T15:00:58.465Z,203.27
2019-01-23T15:03:48.901Z,189.70
2019-01-23T15:06:38.594Z,231.30
2019-01-23T15:09:28.428Z,219.83
2019-01-23T15:12:18.628Z,199.80
2019-01-23T15:15:09.269Z,225.03
2019-01-23T15:17:59.997Z,250.90
2019-01-23T15:20:51.272Z,220.70
2019-01-23T15:23:41.401Z,238.73
2019-01-23T15:26:31.333Z,270.23
2019-01-23T15:29:21.680Z,249.13
2019-01-23T15:32:17.264Z,245.50
2019-01-23T15:35:03.651Z,263.63
2019-01-23T15:37:53.396Z,225.17
2019-01-23T15:40:44.444Z,224.80
2019-01-23T15:43:35.176Z,252.00
2019-01-23T15:46:25.305Z,254.40
2019-01-23T15:49:15.352Z,274.30
2019-01-23T15:52:05.894Z,256.77
2019-01-23T15:54:55.963Z,247.10
2019-01-23T15:57:46.063Z,265.43
2019-01-23T16:00:36.463Z,277.00
2019-01-23T16:03:25.911Z,232.17
2019-01-23T16:06:15.919Z,253.37
2019-01-23T16:09:08.131Z,236.17
2019-01-23T16:11:58.609Z,223.77
2019-01-23T16:14:49.001Z,251.37
2019-01-23T16:17:38.885Z,284.93
2019-01-23T16:20:28.938Z,264.57
2019-01-23T16:23:19.241Z,263.67
2019-01-23T16:26:09.436Z,221.83
2019-01-23T16:28:59.566Z,271.07
2019-01-23T16:31:49.679Z,267.87
2019-01-23T16:34:39.751Z,234.20
2019-01-23T16:37:29.479Z,204.10
2019-01-23T16:40:19.464Z,208.83
2019-01-23T16:43:09.950Z,241.20
2019-01-23T16:45:59.996Z,228.57
2019-01-23T16:48:50.446Z,259.87
2019-01-23T16:51:40.485Z,207.60
2019-01-23T16:54:31.525Z,280.13
2019-01-23T16:57:21.525Z,246.47
2019-01-23T17:00:16.017Z,224.37
2019-01-23T17:03:07.469Z,238.57
2019-01-23T17:05:57.551Z,193.30
2019-01-23T17:08:47.772Z,222.00
2019-01-23T17:11:38.277Z,245.57
2019-01-23T17:14:28.967Z,174.60
2019-01-23T17:17:19.314Z,182.27
2019-01-23T17:20:18.220Z,201.20
2019-01-23T17:23:09.158Z,201.90
2019-01-23T17:25:59.580Z,190.37
2019-01-23T17:28:49.799Z,172.87
2019-01-23T17:31:39.867Z,217.03
2019-01-23T17:34:30.140Z,159.23
2019-01-23T17:37:20.742Z,186.73
2019-01-23T17:40:14.644Z,192.30
2019-01-23T17:43:04.993Z,178.60
2019-01-23T17:45:55.364Z,141.80
2019-01-23T17:48:46.392Z,156.63
2019-01-23T17:51:36.761Z,141.07
2019-01-23T17:54:26.901Z,164.37
2019-01-23T17:57:17.415Z,163.90
2019-01-23T18:00:11.082Z,155.90
2019-01-23T18:03:01.456Z,160.07
2019-01-23T18:05:52.241Z,165.87
2019-01-23T18:08:42.687Z,140.40
2019-01-23T18:11:32.986Z,150.60
2019-01-23T18:14:23.167Z,166.23
2019-01-23T18:17:13.750Z,155.87
2019-01-23T18:20:05.785Z,141.30
2019-01-23T18:22:56.301Z,149.37
2019-01-23T18:25:46.486Z,140.13
2019-01-23T18:28:37.317Z,156.47
2019-01-23T18:31:46.962Z,140.57
2019-01-23T18:35:35.595Z,157.67
2019-01-23T18:39:06.018Z,130.20
2019-01-23T18:42:42.939Z,152.67
2019-01-23T18:46:01.487Z,158.33
2019-01-23T18:49:24.743Z,125.90
2019-01-23T18:52:15.985Z,127.27
2019-01-23T18:55:10.192Z,138.23
2019-01-23T18:58:01.026Z,160.57
2019-01-23T19:00:51.657Z,114.57
2019-01-23T19:03:43.370Z,132.77
2019-01-23T19:06:34.174Z,149.83
2019-01-23T19:09:24.543Z,128.60
2019-01-23T19:12:15.416Z,126.13
2019-01-23T19:15:09.149Z,154.37
2019-01-23T19:17:59.894Z,140.03
2019-01-23T19:20:50.538Z,161.23
2019-01-23T19:23:41.310Z,144.30
2019-01-23T19:26:32.187Z,149.10
2019-01-23T19:29:23.056Z,118.47
2019-01-23T19:35:06.421Z,134.83
2019-01-23T19:37:57.084Z,116.70
2019-01-23T19:40:50.106Z,129.70
2019-01-23T19:43:40.877Z,123.23
2019-01-23T19:46:31.396Z,117.63
2019-01-23T19:49:21.742Z,142.27
2019-01-23T19:52:12.756Z,113.17
2019-01-23T19:55:03.033Z,101.27
2019-01-23T19:57:54.079Z,122.23
2019-01-23T20:00:44.234Z,118.10
2019-01-23T20:03:34.799Z,93.37
2019-01-23T20:06:25.355Z,101.93
2019-01-23T20:09:16.311Z,104.67
2019-01-23T20:12:07.576Z,109.03
2019-01-23T20:14:58.451Z,113.27
2019-01-23T20:17:49.699Z,104.30
2019-01-23T20:20:40.544Z,110.33
2019-01-23T20:23:31.234Z,118.13
2019-01-23T20:26:21.300Z,99.10
2019-01-23T20:29:12.213Z,95.90
2019-01-23T20:32:02.698Z,118.27
2019-01-23T20:34:53.037Z,101.30
2019-01-23T20:37:43.707Z,115.77
2019-01-23T20:40:33.347Z,106.47
2019-01-23T20:43:23.684Z,101.53
2019-01-23T20:46:17.261Z,98.50
2019-01-23T20:49:08.861Z,92.53
2019-01-23T20:51:59.623Z,87.93
2019-01-23T20:54:50.434Z,109.43
2019-01-23T20:57:41.332Z,84.07
2019-01-23T21:00:33.830Z,80.40
2019-01-23T21:03:23.918Z,123.90
2019-01-23T21:06:14.760Z,105.80
2019-01-23T21:09:09.024Z,89.30
2019-01-23T21:11:59.891Z,96.40
2019-01-23T21:14:50.403Z,90.53
2019-01-23T21:17:40.689Z,110.80
2019-01-23T21:20:35.419Z,86.70
2019-01-23T21:23:27.084Z,96.43
2019-01-23T21:26:17.411Z,85.40
2019-01-23T21:29:07.940Z,101.23
2019-01-23T21:31:58.576Z,84.37
2019-01-23T21:34:49.404Z,75.23
2019-01-23T21:37:40.266Z,83.27
2019-01-23T21:40:33.302Z,81.57
2019-01-23T21:43:23.722Z,100.23
2019-01-23T21:46:14.464Z,96.00
2019-01-23T21:49:05.204Z,86.77
2019-01-23T21:51:55.336Z,85.30
2019-01-23T21:54:45.244Z,95.70
2019-01-23T21:57:35.100Z,84.63
2019-01-23T22:00:41.949Z,97.40
2019-01-23T22:03:31.981Z,82.40
2019-01-23T22:06:22.380Z,76.13
2019-01-23T22:09:12.452Z,84.53
2019-01-23T22:12:02.458Z,73.87
2019-01-23T22:14:52.271Z,78.53
2019-01-23T22:17:42.546Z,78.17
2019-01-23T22:20:32.474Z,100.07
2019-01-23T22:23:24.027Z,109.47
2019-01-23T22:26:13.774Z,80.27
2019-01-23T22:29:03.504Z,83.33
2019-01-23T22:31:53.476Z,76.43
2019-01-23T22:34:43.211Z,86.30
2019-01-23T22:37:33.307Z,82.43
2019-01-23T22:40:23.690Z,91.90
2019-01-23T22:43:15.124Z,85.40
2019-01-23T22:46:05.921Z,82.43
2019-01-23T22:48:55.467Z,74.90
2019-01-23T22:51:45.330Z,94.00
2019-01-23T22:54:35.386Z,80.47
2019-01-23T22:57:25.393Z,78.30
2019-01-23T23:01:19.324Z,84.90
2019-01-23T23:04:09.435Z,82.27
2019-01-23T23:07:00.567Z,78.13
2019-01-23T23:09:50.720Z,88.07
2019-01-23T23:12:40.752Z,81.13
2019-01-23T23:15:30.809Z,105.20
2019-01-23T23:18:20.667Z,86.97
2019-01-23T23:21:10.533Z,75.97
2019-01-23T23:24:00.353Z,88.27
2019-01-23T23:26:50.325Z,86.90
2019-01-23T23:29:41.728Z,84.10
2019-01-23T23:32:31.882Z,88.13
2019-01-23T23:35:24.799Z,82.43
2019-01-23T23:38:14.723Z,80.33
2019-01-23T23:41:04.965Z,73.83
2019-01-23T23:43:55.178Z,85.23
2019-01-23T23:46:45.623Z,81.13
2019-01-23T23:49:35.351Z,90.73
2019-01-23T23:52:25.770Z,89.23
2019-01-23T23:55:16.481Z,81.40
2019-01-23T23:58:06.400Z,77.30
